Time;durP1;ratioP1;P1;durP2;ratioP2;P2;SDS_P1;SDS_P2;PMS_P1;PMS_P2;Temp;Humidity;BMP_temperature;BMP_pressure;BME280_temperature;BME280_humidity;BME280_pressure;Samples;Min_cycle;Max_cycle;Signal;HPM_P1;HPM_P2
2023/02/05 00:01:31;;;;;;;29.90;12.18;;;;;;;;;;5085189;28;20043;-71
2023/02/05 00:03:57;;;;;;;37.35;14.05;;;;;;;;;;5099561;28;20556;-71
2023/02/05 00:06:24;;;;;;;35.88;11.55;;;;;;;;;;5098962;28;20064;-70
2023/02/05 00:08:50;;;;;;;27.70;11.75;;;;;;;;;;5096464;28;20046;-70
2023/02/05 00:11:16;;;;;;;27.98;12.02;;;;;;;;;;5096181;28;20810;-70
2023/02/05 00:13:43;;;;;;;29.13;12.10;;;;;;;;;;5077034;28;20043;-71
2023/02/05 00:16:10;;;;;;;28.58;12.00;;;;;;;;;;5094592;28;20093;-70
2023/02/05 00:18:36;;;;;;;38.00;13.45;;;;;;;;;;5075998;28;20123;-71
2023/02/05 00:21:03;;;;;;;36.10;12.27;;;;;;;;;;5099250;28;20058;-71
2023/02/05 00:23:29;;;;;;;42.28;13.35;;;;;;;;;;5096877;28;20120;-71
2023/02/05 00:25:55;;;;;;;32.45;12.52;;;;;;;;;;5096675;28;20044;-71
2023/02/05 00:28:21;;;;;;;37.55;12.52;;;;;;;;;;5098291;28;20040;-71
2023/02/05 00:30:47;;;;;;;44.38;14.85;;;;;;;;;;5097661;28;21074;-71
2023/02/05 00:33:14;;;;;;;35.67;14.15;;;;;;;;;;5093848;28;20059;-71
2023/02/05 00:35:42;;;;;;;38.47;14.13;;;;;;;;;;5099336;28;20071;-71
2023/02/05 00:38:08;;;;;;;40.42;13.75;;;;;;;;;;5096822;28;20372;-71
2023/02/05 00:40:34;;;;;;;37.15;13.75;;;;;;;;;;5095026;28;20431;-71
2023/02/05 00:43:00;;;;;;;40.17;15.75;;;;;;;;;;5098239;28;20081;-71
2023/02/05 00:45:33;;;;;;;45.30;14.75;;;;;;;;;;5080679;28;20110;-71
2023/02/05 00:48:00;;;;;;;41.17;14.73;;;;;;;;;;5078429;28;20541;-71
2023/02/05 00:50:26;;;;;;;40.45;15.15;;;;;;;;;;5095349;28;20507;-71
2023/02/05 00:52:52;;;;;;;49.30;16.17;;;;;;;;;;5076730;28;20522;-71
2023/02/05 00:55:18;;;;;;;53.15;15.82;;;;;;;;;;5077097;28;20420;-71
2023/02/05 00:57:44;;;;;;;47.50;15.88;;;;;;;;;;5079670;28;20071;-71
2023/02/05 01:00:11;;;;;;;50.65;16.77;;;;;;;;;;5081642;28;20711;-71
2023/02/05 01:02:37;;;;;;;44.42;16.08;;;;;;;;;;5078044;28;20063;-71
2023/02/05 01:05:03;;;;;;;51.28;15.90;;;;;;;;;;5078175;28;20048;-71
2023/02/05 01:07:29;;;;;;;51.30;16.05;;;;;;;;;;5094218;28;20048;-71
2023/02/05 01:09:55;;;;;;;61.45;16.77;;;;;;;;;;5095916;28;20047;-71
2023/02/05 01:12:22;;;;;;;53.08;15.93;;;;;;;;;;5098719;28;20093;-71
2023/02/05 01:14:48;;;;;;;64.18;17.63;;;;;;;;;;5099187;28;20467;-71
2023/02/05 01:17:14;;;;;;;52.22;17.63;;;;;;;;;;5097154;28;20051;-71
2023/02/05 01:19:40;;;;;;;56.72;17.10;;;;;;;;;;5095532;28;20540;-71
2023/02/05 01:22:06;;;;;;;56.05;16.33;;;;;;;;;;5078281;28;20059;-71
2023/02/05 01:24:32;;;;;;;55.15;17.38;;;;;;;;;;5076915;28;20388;-71
2023/02/05 01:26:59;;;;;;;49.08;16.83;;;;;;;;;;5090379;28;20047;-71
2023/02/05 01:29:25;;;;;;;58.38;17.48;;;;;;;;;;5076432;28;20053;-71
2023/02/05 01:31:52;;;;;;;74.35;18.75;;;;;;;;;;5095502;28;20511;-71
2023/02/05 01:34:18;;;;;;;51.75;16.90;;;;;;;;;;5094618;28;20032;-71
2023/02/05 01:36:44;;;;;;;63.67;18.02;;;;;;;;;;5095079;28;20122;-71
2023/02/05 01:39:10;;;;;;;62.20;18.42;;;;;;;;;;5098178;28;20043;-71
2023/02/05 01:41:37;;;;;;;66.20;17.00;;;;;;;;;;5076217;28;21123;-71
2023/02/05 01:44:05;;;;;;;82.47;17.75;;;;;;;;;;5079338;28;20060;-71
2023/02/05 01:46:31;;;;;;;55.17;17.50;;;;;;;;;;5095428;28;20092;-71
2023/02/05 01:48:58;;;;;;;68.72;19.08;;;;;;;;;;5094770;28;20047;-71
2023/02/05 01:51:26;;;;;;;69.68;18.05;;;;;;;;;;5060585;28;20039;-71
2023/02/05 01:53:52;;;;;;;77.05;18.48;;;;;;;;;;5076207;28;20039;-71
2023/02/05 01:56:18;;;;;;;64.57;18.55;;;;;;;;;;5094603;28;20051;-71
2023/02/05 01:58:47;;;;;;;73.88;20.13;;;;;;;;;;5093742;28;20046;-71
2023/02/05 02:01:13;;;;;;;85.32;18.63;;;;;;;;;;5092171;28;20060;-71
2023/02/05 02:03:40;;;;;;;81.32;19.83;;;;;;;;;;5094032;28;20077;-71
2023/02/05 02:06:06;;;;;;;81.72;20.05;;;;;;;;;;5093138;28;20079;-71
2023/02/05 02:08:32;;;;;;;78.55;18.27;;;;;;;;;;5093487;28;20066;-71
2023/02/05 02:11:01;;;;;;;95.10;20.75;;;;;;;;;;5095571;28;20043;-71
2023/02/05 02:13:28;;;;;;;87.78;20.13;;;;;;;;;;5094811;28;20056;-71
2023/02/05 02:15:54;;;;;;;95.72;23.10;;;;;;;;;;5096144;28;20461;-71
2023/02/05 02:18:25;;;;;;;88.40;21.55;;;;;;;;;;5077305;28;20151;-71
2023/02/05 02:21:01;;;;;;;87.10;22.65;;;;;;;;;;5093513;28;20036;-71
2023/02/05 02:23:38;;;;;;;97.97;23.45;;;;;;;;;;5096465;28;20035;-71
2023/02/05 02:26:23;;;;;;;100.50;23.38;;;;;;;;;;5094356;28;20475;-71
2023/02/05 02:28:51;;;;;;;101.32;25.20;;;;;;;;;;5093789;28;20494;-71
2023/02/05 02:31:23;;;;;;;118.63;27.40;;;;;;;;;;5093428;28;20040;-71
2023/02/05 02:33:55;;;;;;;121.82;27.13;;;;;;;;;;5097543;28;20047;-71
2023/02/05 02:36:28;;;;;;;113.82;29.52;;;;;;;;;;5082985;28;20055;-71
2023/02/05 02:38:58;;;;;;;130.75;30.50;;;;;;;;;;5062065;28;20040;-71
2023/02/05 02:41:25;;;;;;;148.38;30.75;;;;;;;;;;5095941;28;20056;-71
2023/02/05 02:43:56;;;;;;;147.90;33.20;;;;;;;;;;5097621;28;20088;-71
2023/02/05 02:46:27;;;;;;;138.75;32.63;;;;;;;;;;5099117;28;20448;-71
2023/02/05 02:48:54;;;;;;;193.00;37.28;;;;;;;;;;5093877;28;20052;-71
2023/02/05 02:51:22;;;;;;;146.60;33.88;;;;;;;;;;5094170;28;20484;-71
2023/02/05 02:53:50;;;;;;;148.82;34.30;;;;;;;;;;5098893;28;20042;-71
2023/02/05 02:56:18;;;;;;;160.45;36.20;;;;;;;;;;5100751;28;20076;-71
2023/02/05 02:58:46;;;;;;;153.02;34.88;;;;;;;;;;5097831;28;20040;-71
2023/02/05 03:01:15;;;;;;;129.30;32.25;;;;;;;;;;5098797;28;20255;-71
2023/02/05 03:03:44;;;;;;;143.65;33.60;;;;;;;;;;5093609;28;20092;-71
2023/02/05 03:06:12;;;;;;;138.27;32.70;;;;;;;;;;5079676;28;20449;-71
2023/02/05 03:08:45;;;;;;;108.25;31.10;;;;;;;;;;5083161;28;20055;-71
2023/02/05 03:11:12;;;;;;;137.63;31.77;;;;;;;;;;5095925;28;20043;-71
2023/02/05 03:13:39;;;;;;;117.82;32.75;;;;;;;;;;5099309;28;20062;-71
2023/02/05 03:16:05;;;;;;;108.50;32.22;;;;;;;;;;5096429;28;20043;-71
2023/02/05 03:18:31;;;;;;;109.00;30.38;;;;;;;;;;5101021;28;20043;-71
2023/02/05 03:21:00;;;;;;;92.03;28.45;;;;;;;;;;5102028;28;20051;-71
2023/02/05 03:23:27;;;;;;;98.18;29.13;;;;;;;;;;5098935;28;20085;-71
2023/02/05 03:25:53;;;;;;;87.90;28.23;;;;;;;;;;5080549;28;20040;-71
2023/02/05 03:28:19;;;;;;;89.00;28.98;;;;;;;;;;5098829;28;20131;-71
2023/02/05 03:31:00;;;;;;;81.13;25.23;;;;;;;;;;5096386;28;20039;-71
2023/02/05 03:33:38;;;;;;;66.40;22.55;;;;;;;;;;5099027;28;20411;-71
2023/02/05 03:36:09;;;;;;;71.15;23.75;;;;;;;;;;5096134;28;20663;-71
2023/02/05 03:38:52;;;;;;;66.00;22.38;;;;;;;;;;5096322;28;20742;-71
2023/02/05 03:41:19;;;;;;;76.00;22.98;;;;;;;;;;5096449;28;20411;-71
2023/02/05 03:43:58;;;;;;;79.80;22.45;;;;;;;;;;5099262;28;20060;-71
2023/02/05 03:46:30;;;;;;;59.40;19.80;;;;;;;;;;5097961;28;20047;-71
2023/02/05 03:49:09;;;;;;;51.28;17.50;;;;;;;;;;5077661;28;20772;-71
2023/02/05 03:51:48;;;;;;;53.40;18.00;;;;;;;;;;5078832;28;20054;-71
2023/02/05 03:54:20;;;;;;;46.63;16.67;;;;;;;;;;5096972;28;20100;-71
2023/02/05 03:57:00;;;;;;;57.30;17.42;;;;;;;;;;5095607;28;20101;-71
2023/02/05 03:59:27;;;;;;;58.13;16.73;;;;;;;;;;5098938;28;20039;-71
2023/02/05 04:01:54;;;;;;;48.65;15.60;;;;;;;;;;5097606;28;20419;-71
2023/02/05 04:04:20;;;;;;;41.63;14.82;;;;;;;;;;5095020;28;20043;-71
2023/02/05 04:06:47;;;;;;;40.78;13.68;;;;;;;;;;5097016;28;20105;-71
2023/02/05 04:09:13;;;;;;;40.75;13.02;;;;;;;;;;5077326;28;20172;-71
2023/02/05 04:11:39;;;;;;;34.13;12.55;;;;;;;;;;5098197;28;20047;-71
2023/02/05 04:14:06;;;;;;;46.97;14.27;;;;;;;;;;5096477;28;20079;-71
2023/02/05 04:16:32;;;;;;;39.20;12.30;;;;;;;;;;5097955;28;20097;-71
2023/02/05 04:18:58;;;;;;;40.60;12.15;;;;;;;;;;5094827;28;20047;-71
2023/02/05 04:21:24;;;;;;;43.47;12.93;;;;;;;;;;5079314;28;20142;-71
2023/02/05 04:23:50;;;;;;;28.55;10.43;;;;;;;;;;5077442;28;20368;-71
2023/02/05 04:26:16;;;;;;;22.15;9.02;;;;;;;;;;5097655;28;20079;-71
2023/02/05 04:28:42;;;;;;;19.67;8.27;;;;;;;;;;5096137;28;20044;-71
2023/02/05 04:31:11;;;;;;;20.20;7.68;;;;;;;;;;5098057;28;20047;-71
2023/02/05 04:33:37;;;;;;;15.73;7.35;;;;;;;;;;5097348;28;20044;-71
2023/02/05 04:36:03;;;;;;;13.75;6.82;;;;;;;;;;5095925;28;20441;-71
2023/02/05 04:38:29;;;;;;;14.40;6.82;;;;;;;;;;5079760;28;20391;-71
2023/02/05 04:40:56;;;;;;;17.85;3.58;;;;;;;;;;5099299;28;20059;-71
2023/02/05 04:43:22;;;;;;;26.73;4.38;;;;;;;;;;5099888;28;21690;-71
2023/02/05 04:45:48;;;;;;;18.02;2.72;;;;;;;;;;5093799;28;20142;-71
2023/02/05 04:48:14;;;;;;;21.67;2.50;;;;;;;;;;5095996;28;20046;-71
2023/02/05 04:50:40;;;;;;;32.63;4.50;;;;;;;;;;5094140;28;20059;-71
2023/02/05 04:53:07;;;;;;;24.20;2.70;;;;;;;;;;5097466;28;20040;-71
2023/02/05 04:55:33;;;;;;;28.30;3.20;;;;;;;;;;5076152;28;20159;-71
2023/02/05 04:57:59;;;;;;;22.00;3.03;;;;;;;;;;5097220;28;20059;-70
2023/02/05 05:00:25;;;;;;;25.95;3.38;;;;;;;;;;5096062;28;20158;-71
2023/02/05 05:02:52;;;;;;;26.77;3.22;;;;;;;;;;5095694;28;20044;-71
2023/02/05 05:05:18;;;;;;;26.48;2.75;;;;;;;;;;5076298;28;20441;-70
2023/02/05 05:07:44;;;;;;;28.38;3.45;;;;;;;;;;5096501;28;20048;-70
2023/02/05 05:10:11;;;;;;;25.30;3.00;;;;;;;;;;5094043;28;20043;-71
2023/02/05 05:12:37;;;;;;;24.13;3.30;;;;;;;;;;5096922;28;20070;-71
2023/02/05 05:15:04;;;;;;;23.80;2.08;;;;;;;;;;5094080;28;20387;-71
2023/02/05 05:17:30;;;;;;;26.98;3.67;;;;;;;;;;5077650;28;20043;-71
2023/02/05 05:19:56;;;;;;;15.00;2.28;;;;;;;;;;5058652;28;20052;-71
2023/02/05 05:22:23;;;;;;;24.38;3.28;;;;;;;;;;5076691;28;20052;-71
2023/02/05 05:24:49;;;;;;;24.27;3.00;;;;;;;;;;5094846;28;20391;-71
2023/02/05 05:27:15;;;;;;;18.52;1.60;;;;;;;;;;5096734;28;20400;-70
2023/02/05 05:29:42;;;;;;;15.73;2.15;;;;;;;;;;5060591;28;20043;-70
2023/02/05 05:32:08;;;;;;;18.55;2.00;;;;;;;;;;5097552;28;20032;-71
2023/02/05 05:34:34;;;;;;;12.95;1.65;;;;;;;;;;5084303;28;20035;-71
2023/02/05 05:37:00;;;;;;;14.55;1.75;;;;;;;;;;5076887;28;20105;-70
2023/02/05 05:44:56;;;;;;;18.40;2.10;;;;;;;;;;5078675;28;20048;-71
2023/02/05 05:47:22;;;;;;;21.38;3.08;;;;;;;;;;5058474;28;20504;-71
2023/02/05 05:49:48;;;;;;;22.15;2.88;;;;;;;;;;5078957;28;20032;-71
2023/02/05 05:52:15;;;;;;;21.13;2.55;;;;;;;;;;5077841;28;20508;-71
2023/02/05 05:54:41;;;;;;;17.83;3.42;;;;;;;;;;5060461;28;20047;-71
2023/02/05 05:57:07;;;;;;;34.83;3.13;;;;;;;;;;5056621;28;20166;-71
2023/02/05 05:59:34;;;;;;;19.88;2.67;;;;;;;;;;5078751;28;20430;-71
2023/02/05 06:02:01;;;;;;;24.42;3.08;;;;;;;;;;5080342;28;20345;-71
2023/02/05 06:04:27;;;;;;;26.08;3.45;;;;;;;;;;5077169;28;20047;-71
2023/02/05 06:06:53;;;;;;;26.23;2.67;;;;;;;;;;5058187;28;20559;-71
2023/02/05 06:09:20;;;;;;;30.10;3.85;;;;;;;;;;5077992;28;20044;-71
2023/02/05 06:11:47;;;;;;;22.63;3.35;;;;;;;;;;5056335;28;20553;-71
2023/02/05 06:14:13;;;;;;;28.40;3.50;;;;;;;;;;5077670;28;20463;-71
2023/02/05 06:16:40;;;;;;;21.88;2.20;;;;;;;;;;5076475;28;20043;-71
2023/02/05 06:19:06;;;;;;;30.45;3.22;;;;;;;;;;5078321;28;20055;-71
2023/02/05 06:21:32;;;;;;;24.65;3.97;;;;;;;;;;5077495;28;22015;-71
2023/02/05 06:23:58;;;;;;;36.65;3.50;;;;;;;;;;5077188;28;20352;-71
2023/02/05 06:26:24;;;;;;;26.52;3.10;;;;;;;;;;5077225;28;20445;-71
2023/02/05 06:28:51;;;;;;;27.00;4.68;;;;;;;;;;5058215;28;20044;-71
2023/02/05 06:31:17;;;;;;;21.55;3.15;;;;;;;;;;5060333;28;20050;-71
2023/02/05 06:33:43;;;;;;;24.23;3.38;;;;;;;;;;5076809;28;20044;-71
2023/02/05 06:36:10;;;;;;;28.50;3.70;;;;;;;;;;5079779;28;20032;-71
2023/02/05 06:38:36;;;;;;;22.90;2.83;;;;;;;;;;5077588;28;20043;-71
2023/02/05 06:41:02;;;;;;;32.97;4.88;;;;;;;;;;5087208;28;20637;-70
2023/02/05 06:43:28;;;;;;;25.65;3.72;;;;;;;;;;5095372;28;20526;-71
2023/02/05 06:45:54;;;;;;;25.98;3.35;;;;;;;;;;5091222;28;20069;-71
2023/02/05 06:48:21;;;;;;;15.52;2.75;;;;;;;;;;5077222;28;20040;-71
2023/02/05 06:50:47;;;;;;;25.08;4.28;;;;;;;;;;5093440;28;20044;-71
2023/02/05 06:53:13;;;;;;;35.33;5.00;;;;;;;;;;5096731;28;20142;-71
2023/02/05 06:55:39;;;;;;;31.80;4.88;;;;;;;;;;5093323;28;20035;-71
2023/02/05 06:58:06;;;;;;;33.00;6.07;;;;;;;;;;5094464;28;20048;-71
2023/02/05 07:00:33;;;;;;;32.95;4.38;;;;;;;;;;5093704;28;20059;-72
2023/02/05 07:02:59;;;;;;;32.05;3.78;;;;;;;;;;5074303;28;20620;-71
2023/02/05 07:05:25;;;;;;;29.77;3.78;;;;;;;;;;5099892;28;20056;-71
2023/02/05 07:07:51;;;;;;;16.55;3.17;;;;;;;;;;5075849;28;20043;-70
2023/02/05 07:10:18;;;;;;;31.58;3.20;;;;;;;;;;5080946;28;20043;-70
2023/02/05 07:12:45;;;;;;;26.48;3.33;;;;;;;;;;5082098;28;20040;-69
2023/02/05 07:15:11;;;;;;;29.33;4.45;;;;;;;;;;5098060;28;20044;-68
2023/02/05 07:17:38;;;;;;;24.10;4.57;;;;;;;;;;5100628;28;20135;-71
2023/02/05 07:20:05;;;;;;;31.40;4.53;;;;;;;;;;5080612;28;20039;-71
2023/02/05 07:22:31;;;;;;;27.77;3.28;;;;;;;;;;5093179;28;20755;-72
2023/02/05 07:24:57;;;;;;;20.73;3.45;;;;;;;;;;5093134;28;20495;-71
2023/02/05 07:27:23;;;;;;;23.05;3.40;;;;;;;;;;5058565;28;20044;-71
2023/02/05 07:29:49;;;;;;;21.80;2.63;;;;;;;;;;5091828;28;20118;-70
2023/02/05 07:32:16;;;;;;;21.95;3.72;;;;;;;;;;5093549;28;20134;-71
2023/02/05 07:34:42;;;;;;;21.50;3.13;;;;;;;;;;5097513;28;20040;-71
2023/02/05 07:37:11;;;;;;;20.95;3.58;;;;;;;;;;5060889;28;20504;-71
2023/02/05 07:39:38;;;;;;;22.75;3.42;;;;;;;;;;5085413;28;20454;-70
2023/02/05 07:42:04;;;;;;;25.70;3.03;;;;;;;;;;5088348;28;20105;-71
2023/02/05 07:44:30;;;;;;;21.88;2.92;;;;;;;;;;5098955;28;20071;-71
2023/02/05 07:46:56;;;;;;;20.58;3.13;;;;;;;;;;5082014;28;20498;-71
2023/02/05 07:49:22;;;;;;;19.35;3.22;;;;;;;;;;5096147;28;20040;-71
2023/02/05 07:51:49;;;;;;;23.25;3.40;;;;;;;;;;5101062;28;20044;-71
2023/02/05 07:54:15;;;;;;;39.60;4.90;;;;;;;;;;5097940;28;20044;-70
2023/02/05 07:56:41;;;;;;;28.90;3.67;;;;;;;;;;5082249;28;20047;-69
2023/02/05 07:59:08;;;;;;;27.80;3.60;;;;;;;;;;5075877;28;20134;-71
2023/02/05 08:01:35;;;;;;;32.67;4.53;;;;;;;;;;5099214;28;20040;-71
2023/02/05 08:04:01;;;;;;;32.90;4.68;;;;;;;;;;5103309;28;20043;-71
2023/02/05 08:06:27;;;;;;;30.90;4.90;;;;;;;;;;5086476;28;20070;-71
2023/02/05 08:08:54;;;;;;;32.08;4.75;;;;;;;;;;5103805;28;20070;-71
2023/02/05 08:11:21;;;;;;;28.42;4.10;;;;;;;;;;5064281;28;20391;-71
2023/02/05 08:13:47;;;;;;;28.33;5.00;;;;;;;;;;5099083;28;20067;-71
2023/02/05 08:16:14;;;;;;;30.75;4.50;;;;;;;;;;5080489;28;20149;-71
2023/02/05 08:18:40;;;;;;;25.42;4.93;;;;;;;;;;5102556;28;20064;-71
2023/02/05 08:21:07;;;;;;;35.50;5.47;;;;;;;;;;5080307;28;20052;-70
2023/02/05 08:23:33;;;;;;;31.75;4.68;;;;;;;;;;5097779;28;20172;-72
2023/02/05 08:25:59;;;;;;;35.92;5.50;;;;;;;;;;5077407;28;20050;-72
2023/02/05 08:28:27;;;;;;;41.63;4.90;;;;;;;;;;5077386;28;20040;-71
2023/02/05 08:30:55;;;;;;;27.90;5.10;;;;;;;;;;5097353;28;20399;-71
2023/02/05 08:33:21;;;;;;;31.13;6.00;;;;;;;;;;5079326;28;20039;-71
2023/02/05 08:35:47;;;;;;;45.85;7.18;;;;;;;;;;5102044;28;20046;-71
2023/02/05 08:38:13;;;;;;;41.40;6.07;;;;;;;;;;5085661;28;20543;-71
2023/02/05 08:40:40;;;;;;;29.85;5.20;;;;;;;;;;5094882;28;20051;-71
2023/02/05 08:43:07;;;;;;;28.77;4.30;;;;;;;;;;5095387;28;20126;-71
2023/02/05 08:45:33;;;;;;;31.58;4.82;;;;;;;;;;5095907;28;20058;-71
2023/02/05 08:47:59;;;;;;;28.83;5.30;;;;;;;;;;5097604;28;20052;-71
2023/02/05 08:50:26;;;;;;;28.88;4.80;;;;;;;;;;5078424;28;20538;-72
2023/02/05 08:52:52;;;;;;;38.88;6.72;;;;;;;;;;5075246;28;20532;-72
2023/02/05 08:55:18;;;;;;;38.67;5.47;;;;;;;;;;5078511;28;20044;-71
2023/02/05 08:57:45;;;;;;;49.70;6.45;;;;;;;;;;5100192;28;20071;-71
2023/02/05 09:00:12;;;;;;;35.60;5.75;;;;;;;;;;5094541;28;20526;-71
2023/02/05 09:02:40;;;;;;;38.60;8.93;;;;;;;;;;5097948;28;20085;-72
2023/02/05 09:05:06;;;;;;;40.13;6.95;;;;;;;;;;5097311;28;20043;-71
2023/02/05 09:07:32;;;;;;;35.75;4.97;;;;;;;;;;5078359;28;20059;-71
2023/02/05 09:09:58;;;;;;;36.17;6.40;;;;;;;;;;5097326;28;20032;-71
2023/02/05 09:12:24;;;;;;;35.17;5.85;;;;;;;;;;5081519;28;20042;-71
2023/02/05 09:14:51;;;;;;;38.53;6.90;;;;;;;;;;5099724;28;20069;-71
2023/02/05 09:17:17;;;;;;;41.22;7.30;;;;;;;;;;5100229;28;20419;-71
2023/02/05 09:19:43;;;;;;;49.42;6.85;;;;;;;;;;5080283;28;20036;-71
2023/02/05 09:22:09;;;;;;;46.28;8.02;;;;;;;;;;5096494;28;20062;-71
2023/02/05 09:24:37;;;;;;;41.97;6.18;;;;;;;;;;5097558;28;20043;-71
2023/02/05 09:27:03;;;;;;;35.85;6.68;;;;;;;;;;5077639;28;20047;-71
2023/02/05 09:29:30;;;;;;;44.60;8.30;;;;;;;;;;5076916;28;20046;-71
2023/02/05 09:31:56;;;;;;;41.17;6.60;;;;;;;;;;5095913;28;20044;-71
2023/02/05 09:34:22;;;;;;;41.55;7.13;;;;;;;;;;5082154;28;20093;-71
2023/02/05 09:36:48;;;;;;;48.28;8.48;;;;;;;;;;5071618;28;20047;-71
2023/02/05 09:39:14;;;;;;;39.58;6.72;;;;;;;;;;5093715;28;20040;-70
2023/02/05 09:42:00;;;;;;;44.92;7.72;;;;;;;;;;5096514;28;20043;-71
2023/02/05 09:44:34;;;;;;;43.80;6.63;;;;;;;;;;5095917;28;20115;-71
2023/02/05 09:47:09;;;;;;;36.17;7.30;;;;;;;;;;5094736;28;20349;-71
2023/02/05 09:49:48;;;;;;;43.80;8.00;;;;;;;;;;5093826;28;20130;-71
2023/02/05 09:52:19;;;;;;;35.17;6.65;;;;;;;;;;5101344;28;20154;-71
2023/02/05 09:54:48;;;;;;;38.80;6.95;;;;;;;;;;5084090;28;20051;-71
2023/02/05 09:57:17;;;;;;;44.47;6.80;;;;;;;;;;5080616;28;20813;-71
2023/02/05 09:59:44;;;;;;;54.78;8.85;;;;;;;;;;5080884;28;20044;-71
2023/02/05 10:02:21;;;;;;;44.30;7.82;;;;;;;;;;5081811;28;20051;-71
2023/02/05 10:04:50;;;;;;;39.97;5.97;;;;;;;;;;5096959;28;20042;-71
2023/02/05 10:07:24;;;;;;;41.42;8.50;;;;;;;;;;5093694;28;20061;-71
2023/02/05 10:09:58;;;;;;;42.60;8.43;;;;;;;;;;5091562;28;20036;-71
2023/02/05 10:12:24;;;;;;;;;;;;;;;;;;5096387;28;20052;-71
2023/02/05 10:14:57;;;;;;;40.25;7.88;;;;;;;;;;5077770;28;19965;-71
2023/02/05 10:17:28;;;;;;;46.70;7.18;;;;;;;;;;5080509;28;20043;-71
2023/02/05 10:20:05;;;;;;;45.00;7.25;;;;;;;;;;5097191;28;21842;-71
2023/02/05 10:22:40;;;;;;;49.10;8.15;;;;;;;;;;5102217;28;20740;-71
2023/02/05 10:25:25;;;;;;;47.40;6.72;;;;;;;;;;5079099;28;20420;-71
2023/02/05 10:27:59;;;;;;;46.03;8.80;;;;;;;;;;5080071;28;20142;-71
2023/02/05 10:30:29;;;;;;;41.28;6.70;;;;;;;;;;5093447;28;20040;-71
2023/02/05 10:32:57;;;;;;;37.58;7.07;;;;;;;;;;5093855;28;20048;-71
2023/02/05 10:35:26;;;;;;;43.28;7.35;;;;;;;;;;5078806;28;20056;-71
2023/02/05 10:37:54;;;;;;;33.25;5.80;;;;;;;;;;5076576;28;20040;-71
2023/02/05 10:40:23;;;;;;;36.08;5.97;;;;;;;;;;5077939;28;20055;-71
2023/02/05 10:42:50;;;;;;;36.08;5.85;;;;;;;;;;5097993;28;20056;-71
2023/02/05 10:45:19;;;;;;;41.55;5.97;;;;;;;;;;5095341;28;20044;-71
2023/02/05 10:47:51;;;;;;;34.67;5.40;;;;;;;;;;5080032;28;20097;-71
2023/02/05 10:50:30;;;;;;;41.38;6.53;;;;;;;;;;5091947;28;20075;-71
2023/02/05 10:52:56;;;;;;;30.27;5.05;;;;;;;;;;5074740;28;20075;-71
2023/02/05 10:55:22;;;;;;;36.25;5.13;;;;;;;;;;5079498;28;20047;-71
2023/02/05 10:57:48;;;;;;;30.67;5.95;;;;;;;;;;5095695;28;20431;-71
2023/02/05 11:00:17;;;;;;;32.03;5.95;;;;;;;;;;5098760;28;20115;-71
2023/02/05 11:02:46;;;;;;;41.38;6.35;;;;;;;;;;5095707;28;20032;-71
2023/02/05 11:05:18;;;;;;;32.97;5.97;;;;;;;;;;5098095;28;20503;-71
2023/02/05 11:07:45;;;;;;;36.33;5.90;;;;;;;;;;5090583;28;20471;-71
2023/02/05 11:10:13;;;;;;;33.78;6.20;;;;;;;;;;5080563;28;20086;-71
2023/02/05 11:12:39;;;;;;;44.10;6.10;;;;;;;;;;5096664;28;20132;-71
2023/02/05 11:15:17;;;;;;;32.22;5.05;;;;;;;;;;5100046;28;20075;-71
2023/02/05 11:17:43;;;;;;;32.67;5.68;;;;;;;;;;5079586;28;20047;-71
2023/02/05 11:20:15;;;;;;;38.30;7.28;;;;;;;;;;5099585;28;20116;-71
2023/02/05 11:22:42;;;;;;;29.95;5.03;;;;;;;;;;5082907;28;20398;-71
2023/02/05 11:25:15;;;;;;;36.78;5.90;;;;;;;;;;5102329;28;20428;-70
2023/02/05 11:27:49;;;;;;;32.47;5.05;;;;;;;;;;5098276;28;20055;-69
2023/02/05 11:30:17;;;;;;;41.13;6.05;;;;;;;;;;5096206;28;20688;-71
2023/02/05 11:32:44;;;;;;;31.50;6.13;;;;;;;;;;5102045;28;20056;-70
2023/02/05 11:35:19;;;;;;;40.92;6.43;;;;;;;;;;5097310;28;20044;-71
2023/02/05 11:37:47;;;;;;;35.38;6.22;;;;;;;;;;5101289;28;20062;-77
2023/02/05 11:40:20;;;;;;;29.60;5.57;;;;;;;;;;5094031;28;20051;-70
2023/02/05 11:42:47;;;;;;;35.55;6.28;;;;;;;;;;5079945;28;20047;-71
2023/02/05 11:45:18;;;;;;;35.92;6.70;;;;;;;;;;5082326;28;20123;-70
2023/02/05 11:47:45;;;;;;;34.72;6.50;;;;;;;;;;5093775;28;20052;-71
2023/02/05 11:50:23;;;;;;;37.80;7.00;;;;;;;;;;5100144;28;20036;-71
2023/02/05 11:52:49;;;;;;;42.22;6.63;;;;;;;;;;5096043;28;20036;-71
2023/02/05 11:55:30;;;;;;;38.08;7.32;;;;;;;;;;5097855;28;20083;-71
2023/02/05 11:58:02;;;;;;;29.70;5.70;;;;;;;;;;5098212;28;20044;-71
2023/02/05 12:00:29;;;;;;;38.53;7.65;;;;;;;;;;5099174;28;20036;-71
2023/02/05 12:03:04;;;;;;;42.92;8.18;;;;;;;;;;5100653;28;20446;-71
2023/02/05 12:05:32;;;;;;;40.55;7.65;;;;;;;;;;5102336;28;20100;-70
2023/02/05 12:08:02;;;;;;;33.97;7.47;;;;;;;;;;5103107;28;20028;-71
2023/02/05 12:10:37;;;;;;;32.83;6.35;;;;;;;;;;5098155;28;20039;-76
2023/02/05 12:13:03;;;;;;;30.63;6.70;;;;;;;;;;5076076;28;20055;-70
2023/02/05 12:15:36;;;;;;;36.33;6.40;;;;;;;;;;5094600;28;20109;-71
2023/02/05 12:18:15;;;;;;;37.35;7.28;;;;;;;;;;5094012;28;20444;-71
2023/02/05 12:21:01;;;;;;;31.98;6.68;;;;;;;;;;5080688;28;20039;-71
2023/02/05 12:23:28;;;;;;;37.60;7.00;;;;;;;;;;5078368;28;20079;-71
2023/02/05 12:25:59;;;;;;;43.60;8.98;;;;;;;;;;5081218;28;20083;-71
2023/02/05 12:28:34;;;;;;;37.08;7.72;;;;;;;;;;5098676;28;20506;-71
2023/02/05 12:31:07;;;;;;;46.28;7.30;;;;;;;;;;5100353;28;20214;-71
2023/02/05 12:33:33;;;;;;;45.47;7.72;;;;;;;;;;5097250;28;20090;-71
2023/02/05 12:36:18;;;;;;;38.67;7.07;;;;;;;;;;5074836;28;20055;-71
2023/02/05 12:38:47;;;;;;;41.22;7.53;;;;;;;;;;5095053;28;20127;-71
2023/02/05 12:41:28;;;;;;;39.95;7.15;;;;;;;;;;5095087;28;20336;-71
2023/02/05 12:44:00;;;;;;;37.78;7.22;;;;;;;;;;5096900;28;20040;-72
2023/02/05 12:46:35;;;;;;;36.63;7.00;;;;;;;;;;5061509;28;20052;-71
2023/02/05 12:49:17;;;;;;;44.00;7.38;;;;;;;;;;5096738;28;20384;-72
2023/02/05 12:51:43;;;;;;;39.13;6.50;;;;;;;;;;5098290;28;20035;-71
2023/02/05 12:54:18;;;;;;;33.70;6.95;;;;;;;;;;5098860;28;20065;-71
2023/02/05 12:56:48;;;;;;;43.38;6.25;;;;;;;;;;5101628;28;20383;-71
2023/02/05 12:59:18;;;;;;;40.78;7.03;;;;;;;;;;5098811;28;20076;-72
2023/02/05 13:01:56;;;;;;;33.65;6.70;;;;;;;;;;5079687;28;20090;-72
2023/02/05 13:04:25;;;;;;;35.25;6.47;;;;;;;;;;5079341;28;20046;-72
2023/02/05 13:06:54;;;;;;;27.73;6.15;;;;;;;;;;5102076;28;20054;-72
2023/02/05 13:09:23;;;;;;;27.90;5.80;;;;;;;;;;5097720;28;20391;-72
2023/02/05 13:11:55;;;;;;;26.60;6.15;;;;;;;;;;5096498;28;20161;-72
2023/02/05 13:14:25;;;;;;;39.25;6.30;;;;;;;;;;5092565;28;20404;-71
2023/02/05 13:16:58;;;;;;;37.40;6.72;;;;;;;;;;5073610;28;20100;-72
2023/02/05 13:19:24;;;;;;;;;;;;;;;;;;5079558;28;20073;-72
2023/02/05 13:30:29;;;;;;;28.92;6.60;;;;;;;;;;5095740;28;20083;-72
2023/02/05 13:32:58;;;;;;;38.17;7.63;;;;;;;;;;5078264;28;20515;-72
2023/02/05 13:35:25;;;;;;;29.77;6.05;;;;;;;;;;5080860;28;20332;-72
2023/02/05 13:38:01;;;;;;;39.40;7.78;;;;;;;;;;5100309;28;20059;-72
2023/02/05 13:40:35;;;;;;;44.13;6.68;;;;;;;;;;5098578;28;20040;-71
2023/02/05 13:43:21;;;;;;;33.95;7.90;;;;;;;;;;5095997;28;20043;-71
2023/02/05 13:46:02;;;;;;;27.60;6.65;;;;;;;;;;5093575;28;20048;-71
2023/02/05 13:48:35;;;;;;;31.17;6.43;;;;;;;;;;5095694;28;20043;-71
2023/02/05 13:51:01;;;;;;;32.37;7.03;;;;;;;;;;5080822;28;20096;-71
2023/02/05 13:53:37;;;;;;;30.65;6.78;;;;;;;;;;5098925;28;20407;-71
2023/02/05 13:56:19;;;;;;;27.75;5.07;;;;;;;;;;5095699;28;20409;-71
2023/02/05 13:58:49;;;;;;;36.72;6.57;;;;;;;;;;5096509;28;20036;-71
2023/02/05 14:01:20;;;;;;;28.63;6.72;;;;;;;;;;5075009;28;20040;-71
2023/02/05 14:03:55;;;;;;;37.28;6.65;;;;;;;;;;5101596;28;20429;-71
2023/02/05 14:06:26;;;;;;;49.90;8.27;;;;;;;;;;5100032;28;20047;-70
2023/02/05 14:08:58;;;;;;;44.58;7.72;;;;;;;;;;5100181;28;20054;-71
2023/02/05 14:11:24;;;;;;;34.97;7.32;;;;;;;;;;5096586;28;20066;-71
2023/02/05 14:14:14;;;;;;;24.55;6.35;;;;;;;;;;5079712;28;20055;-69
2023/02/05 14:16:40;;;;;;;37.22;8.60;;;;;;;;;;5090736;28;20056;-69
2023/02/05 14:19:15;;;;;;;38.00;7.90;;;;;;;;;;5097510;28;20040;-70
2023/02/05 14:21:44;;;;;;;38.42;6.88;;;;;;;;;;5079932;28;20044;-70
2023/02/05 14:24:27;;;;;;;48.03;8.38;;;;;;;;;;5094935;28;20065;-70
2023/02/05 14:26:55;;;;;;;39.67;8.38;;;;;;;;;;5072072;28;20123;-70
2023/02/05 14:29:38;;;;;;;44.92;9.00;;;;;;;;;;5094561;28;20036;-70
2023/02/05 14:32:04;;;;;;;34.63;8.30;;;;;;;;;;5076715;28;20127;-70
2023/02/05 14:34:31;;;;;;;42.95;7.65;;;;;;;;;;5095402;28;20469;-70
2023/02/05 14:36:58;;;;;;;54.08;8.80;;;;;;;;;;5097118;28;20040;-71
2023/02/05 14:39:29;;;;;;;37.25;6.95;;;;;;;;;;5099104;28;20050;-71
2023/02/05 14:41:58;;;;;;;51.03;9.15;;;;;;;;;;5095796;28;20058;-70
2023/02/05 14:44:27;;;;;;;41.28;7.03;;;;;;;;;;5076528;28;20501;-71
2023/02/05 14:47:02;;;;;;;54.63;8.25;;;;;;;;;;5098602;28;20035;-70
2023/02/05 14:49:32;;;;;;;51.35;8.32;;;;;;;;;;5099618;28;20476;-71